sensor_id;sensor_type;location;lat;lon;timestamp;temperature;humidity
8067;DHT22;4076;48.076;9.118;2022-12-07T00:01:19;2.60;99.90
8067;DHT22;4076;48.076;9.118;2022-12-07T00:03:46;2.60;99.90
8067;DHT22;4076;48.076;9.118;2022-12-07T00:06:14;2.60;99.90
8067;DHT22;4076;48.076;9.118;2022-12-07T00:08:40;2.60;99.90
8067;DHT22;4076;48.076;9.118;2022-12-07T00:11:17;2.50;99.90
8067;DHT22;4076;48.076;9.118;2022-12-07T00:13:44;2.50;99.90
8067;DHT22;4076;48.076;9.118;2022-12-07T00:16:15;2.50;99.90
8067;DHT22;4076;48.076;9.118;2022-12-07T00:18:41;2.50;99.90
8067;DHT22;4076;48.076;9.118;2022-12-07T00:23:35;2.60;99.90
8067;DHT22;4076;48.076;9.118;2022-12-07T00:26:09;2.70;99.90
8067;DHT22;4076;48.076;9.118;2022-12-07T00:28:35;2.70;99.90
8067;DHT22;4076;48.076;9.118;2022-12-07T00:31:03;2.60;99.90
8067;DHT22;4076;48.076;9.118;2022-12-07T00:33:29;2.60;99.90
8067;DHT22;4076;48.076;9.118;2022-12-07T00:35:58;2.60;99.90
8067;DHT22;4076;48.076;9.118;2022-12-07T00:38:24;2.60;99.90
8067;DHT22;4076;48.076;9.118;2022-12-07T00:41:07;2.70;99.90
8067;DHT22;4076;48.076;9.118;2022-12-07T00:43:33;2.70;99.90
8067;DHT22;4076;48.076;9.118;2022-12-07T00:45:59;2.70;99.90
8067;DHT22;4076;48.076;9.118;2022-12-07T00:48:25;2.70;99.90
8067;DHT22;4076;48.076;9.118;2022-12-07T00:50:51;2.70;99.90
8067;DHT22;4076;48.076;9.118;2022-12-07T00:53:17;2.70;99.90
8067;DHT22;4076;48.076;9.118;2022-12-07T00:55:43;2.60;99.90
8067;DHT22;4076;48.076;9.118;2022-12-07T00:58:08;2.60;99.90
8067;DHT22;4076;48.076;9.118;2022-12-07T01:00:36;2.50;99.90
8067;DHT22;4076;48.076;9.118;2022-12-07T01:03:03;2.50;99.90
8067;DHT22;4076;48.076;9.118;2022-12-07T01:05:29;2.50;99.90
8067;DHT22;4076;48.076;9.118;2022-12-07T01:07:54;2.50;99.90
8067;DHT22;4076;48.076;9.118;2022-12-07T01:10:20;2.50;99.90
8067;DHT22;4076;48.076;9.118;2022-12-07T01:12:45;2.60;99.90
8067;DHT22;4076;48.076;9.118;2022-12-07T01:15:11;2.60;99.90
8067;DHT22;4076;48.076;9.118;2022-12-07T01:17:37;2.60;99.90
8067;DHT22;4076;48.076;9.118;2022-12-07T01:20:03;2.60;99.90
8067;DHT22;4076;48.076;9.118;2022-12-07T01:22:29;2.60;99.90
8067;DHT22;4076;48.076;9.118;2022-12-07T01:24:55;2.70;99.90
8067;DHT22;4076;48.076;9.118;2022-12-07T01:27:20;2.70;99.90
8067;DHT22;4076;48.076;9.118;2022-12-07T01:29:46;2.80;99.90
8067;DHT22;4076;48.076;9.118;2022-12-07T01:32:11;2.80;99.90
8067;DHT22;4076;48.076;9.118;2022-12-07T01:34:37;2.80;99.90
8067;DHT22;4076;48.076;9.118;2022-12-07T01:37:03;2.70;99.90
8067;DHT22;4076;48.076;9.118;2022-12-07T01:39:28;2.70;99.90
8067;DHT22;4076;48.076;9.118;2022-12-07T01:41:55;2.70;99.90
8067;DHT22;4076;48.076;9.118;2022-12-07T01:44:28;2.80;99.90
8067;DHT22;4076;48.076;9.118;2022-12-07T01:47:02;2.80;99.90
8067;DHT22;4076;48.076;9.118;2022-12-07T01:52:06;2.90;99.90
8067;DHT22;4076;48.076;9.118;2022-12-07T01:54:36;2.90;99.90
8067;DHT22;4076;48.076;9.118;2022-12-07T01:57:02;2.90;99.90
8067;DHT22;4076;48.076;9.118;2022-12-07T01:59:28;2.90;99.90
8067;DHT22;4076;48.076;9.118;2022-12-07T02:01:55;2.90;99.90
8067;DHT22;4076;48.076;9.118;2022-12-07T02:04:21;2.80;99.90
8067;DHT22;4076;48.076;9.118;2022-12-07T02:06:48;2.80;99.90
8067;DHT22;4076;48.076;9.118;2022-12-07T02:09:14;2.80;99.90
8067;DHT22;4076;48.076;9.118;2022-12-07T02:11:40;2.70;99.90
8067;DHT22;4076;48.076;9.118;2022-12-07T02:14:06;2.70;99.90
8067;DHT22;4076;48.076;9.118;2022-12-07T02:16:38;2.70;99.90
8067;DHT22;4076;48.076;9.118;2022-12-07T02:24:52;2.60;99.90
8067;DHT22;4076;48.076;9.118;2022-12-07T02:27:43;2.50;99.90
8067;DHT22;4076;48.076;9.118;2022-12-07T02:30:21;2.50;99.90
8067;DHT22;4076;48.076;9.118;2022-12-07T02:35:48;2.50;99.90
8067;DHT22;4076;48.076;9.118;2022-12-07T02:38:55;2.50;99.90
8067;DHT22;4076;48.076;9.118;2022-12-07T02:41:16;2.50;99.90
8067;DHT22;4076;48.076;9.118;2022-12-07T02:43:46;2.50;99.90
8067;DHT22;4076;48.076;9.118;2022-12-07T02:46:20;2.60;99.90
8067;DHT22;4076;48.076;9.118;2022-12-07T02:48:47;2.60;99.90
8067;DHT22;4076;48.076;9.118;2022-12-07T02:51:14;2.60;99.90
8067;DHT22;4076;48.076;9.118;2022-12-07T02:53:41;2.60;99.90
8067;DHT22;4076;48.076;9.118;2022-12-07T02:56:18;2.60;99.90
8067;DHT22;4076;48.076;9.118;2022-12-07T03:07:05;2.60;99.90
8067;DHT22;4076;48.076;9.118;2022-12-07T03:09:44;2.60;99.90
8067;DHT22;4076;48.076;9.118;2022-12-07T03:12:17;2.60;99.90
8067;DHT22;4076;48.076;9.118;2022-12-07T03:15:05;2.50;99.90
8067;DHT22;4076;48.076;9.118;2022-12-07T03:17:35;2.60;99.90
8067;DHT22;4076;48.076;9.118;2022-12-07T03:20:05;2.50;99.90
8067;DHT22;4076;48.076;9.118;2022-12-07T03:22:34;2.60;99.90
8067;DHT22;4076;48.076;9.118;2022-12-07T03:25:04;2.50;99.90
8067;DHT22;4076;48.076;9.118;2022-12-07T03:27:35;2.50;99.90
8067;DHT22;4076;48.076;9.118;2022-12-07T03:30:08;2.50;99.90
8067;DHT22;4076;48.076;9.118;2022-12-07T03:32:44;2.50;99.90
8067;DHT22;4076;48.076;9.118;2022-12-07T03:35:33;2.50;99.90
8067;DHT22;4076;48.076;9.118;2022-12-07T03:38:20;2.50;99.90
8067;DHT22;4076;48.076;9.118;2022-12-07T03:40:48;2.50;99.90
8067;DHT22;4076;48.076;9.118;2022-12-07T03:43:18;2.50;99.90
8067;DHT22;4076;48.076;9.118;2022-12-07T03:48:24;2.70;99.90
8067;DHT22;4076;48.076;9.118;2022-12-07T03:50:54;2.60;99.90
8067;DHT22;4076;48.076;9.118;2022-12-07T03:53:34;2.60;99.90
8067;DHT22;4076;48.076;9.118;2022-12-07T03:56:02;2.60;99.90
8067;DHT22;4076;48.076;9.118;2022-12-07T03:58:30;2.60;99.90
8067;DHT22;4076;48.076;9.118;2022-12-07T04:00:56;2.60;99.90
8067;DHT22;4076;48.076;9.118;2022-12-07T04:03:22;2.60;99.90
8067;DHT22;4076;48.076;9.118;2022-12-07T04:05:47;2.60;99.90
8067;DHT22;4076;48.076;9.118;2022-12-07T04:08:13;2.60;99.90
8067;DHT22;4076;48.076;9.118;2022-12-07T04:10:39;2.60;99.90
8067;DHT22;4076;48.076;9.118;2022-12-07T04:13:04;2.60;99.90
8067;DHT22;4076;48.076;9.118;2022-12-07T04:15:30;2.60;99.90
8067;DHT22;4076;48.076;9.118;2022-12-07T04:17:56;2.60;99.90
8067;DHT22;4076;48.076;9.118;2022-12-07T04:20:21;2.60;99.90
8067;DHT22;4076;48.076;9.118;2022-12-07T04:22:47;2.50;99.90
8067;DHT22;4076;48.076;9.118;2022-12-07T04:25:12;2.60;99.90
8067;DHT22;4076;48.076;9.118;2022-12-07T04:27:38;2.50;99.90
8067;DHT22;4076;48.076;9.118;2022-12-07T04:30:04;2.60;99.90
8067;DHT22;4076;48.076;9.118;2022-12-07T04:32:30;2.60;99.90
8067;DHT22;4076;48.076;9.118;2022-12-07T04:34:56;2.60;99.90
8067;DHT22;4076;48.076;9.118;2022-12-07T04:37:22;2.60;99.90
8067;DHT22;4076;48.076;9.118;2022-12-07T04:39:47;2.60;99.90
8067;DHT22;4076;48.076;9.118;2022-12-07T04:42:13;2.60;99.90
8067;DHT22;4076;48.076;9.118;2022-12-07T04:44:38;2.50;99.90
8067;DHT22;4076;48.076;9.118;2022-12-07T04:47:05;2.40;99.90
8067;DHT22;4076;48.076;9.118;2022-12-07T04:49:30;2.40;99.90
8067;DHT22;4076;48.076;9.118;2022-12-07T04:51:56;2.40;99.90
8067;DHT22;4076;48.076;9.118;2022-12-07T04:54:22;2.40;99.90
8067;DHT22;4076;48.076;9.118;2022-12-07T04:56:47;2.40;99.90
8067;DHT22;4076;48.076;9.118;2022-12-07T04:59:15;2.40;99.90
8067;DHT22;4076;48.076;9.118;2022-12-07T05:01:41;2.50;99.90
8067;DHT22;4076;48.076;9.118;2022-12-07T05:04:07;2.40;99.90
8067;DHT22;4076;48.076;9.118;2022-12-07T05:06:33;2.40;99.90
8067;DHT22;4076;48.076;9.118;2022-12-07T05:08:59;2.40;99.90
8067;DHT22;4076;48.076;9.118;2022-12-07T05:11:25;2.40;99.90
8067;DHT22;4076;48.076;9.118;2022-12-07T05:16:34;2.30;99.90
8067;DHT22;4076;48.076;9.118;2022-12-07T05:19:00;2.30;99.90
8067;DHT22;4076;48.076;9.118;2022-12-07T05:21:26;2.40;99.90
8067;DHT22;4076;48.076;9.118;2022-12-07T05:23:51;2.40;99.90
8067;DHT22;4076;48.076;9.118;2022-12-07T05:26:18;2.30;99.90
8067;DHT22;4076;48.076;9.118;2022-12-07T05:28:44;2.30;99.90
8067;DHT22;4076;48.076;9.118;2022-12-07T05:31:09;2.30;99.90
8067;DHT22;4076;48.076;9.118;2022-12-07T05:33:35;2.30;99.90
8067;DHT22;4076;48.076;9.118;2022-12-07T05:36:01;2.20;99.90
8067;DHT22;4076;48.076;9.118;2022-12-07T05:38:34;2.30;99.90
8067;DHT22;4076;48.076;9.118;2022-12-07T05:41:04;2.20;99.90
8067;DHT22;4076;48.076;9.118;2022-12-07T05:43:30;2.20;99.90
8067;DHT22;4076;48.076;9.118;2022-12-07T05:45:57;2.20;99.90
8067;DHT22;4076;48.076;9.118;2022-12-07T05:48:23;2.20;99.90
8067;DHT22;4076;48.076;9.118;2022-12-07T05:50:49;2.20;99.90
8067;DHT22;4076;48.076;9.118;2022-12-07T05:53:16;2.30;99.90
8067;DHT22;4076;48.076;9.118;2022-12-07T05:55:41;2.30;99.90
8067;DHT22;4076;48.076;9.118;2022-12-07T05:58:07;2.30;99.90
8067;DHT22;4076;48.076;9.118;2022-12-07T06:00:53;2.30;99.90
8067;DHT22;4076;48.076;9.118;2022-12-07T06:03:19;2.20;99.90
8067;DHT22;4076;48.076;9.118;2022-12-07T06:05:44;2.10;99.90
8067;DHT22;4076;48.076;9.118;2022-12-07T06:08:10;2.00;99.90
8067;DHT22;4076;48.076;9.118;2022-12-07T06:10:36;2.00;99.90
8067;DHT22;4076;48.076;9.118;2022-12-07T06:13:01;2.00;99.90
8067;DHT22;4076;48.076;9.118;2022-12-07T06:15:27;2.00;99.90
8067;DHT22;4076;48.076;9.118;2022-12-07T06:17:52;2.00;99.90
8067;DHT22;4076;48.076;9.118;2022-12-07T06:20:18;2.10;99.90
8067;DHT22;4076;48.076;9.118;2022-12-07T06:22:43;2.10;99.90
8067;DHT22;4076;48.076;9.118;2022-12-07T06:25:09;2.10;99.90
8067;DHT22;4076;48.076;9.118;2022-12-07T06:27:35;2.00;99.90
8067;DHT22;4076;48.076;9.118;2022-12-07T06:30:00;2.10;99.90
8067;DHT22;4076;48.076;9.118;2022-12-07T06:32:35;2.10;99.90
8067;DHT22;4076;48.076;9.118;2022-12-07T06:35:03;2.00;99.90
8067;DHT22;4076;48.076;9.118;2022-12-07T06:37:29;2.00;99.90
8067;DHT22;4076;48.076;9.118;2022-12-07T06:39:54;2.00;99.90
8067;DHT22;4076;48.076;9.118;2022-12-07T06:42:20;2.00;99.90
8067;DHT22;4076;48.076;9.118;2022-12-07T06:44:45;2.00;99.90
8067;DHT22;4076;48.076;9.118;2022-12-07T06:47:11;2.10;99.90
8067;DHT22;4076;48.076;9.118;2022-12-07T06:49:37;2.10;99.90
8067;DHT22;4076;48.076;9.118;2022-12-07T06:52:02;2.10;99.90
8067;DHT22;4076;48.076;9.118;2022-12-07T06:54:30;2.20;99.90
8067;DHT22;4076;48.076;9.118;2022-12-07T06:56:55;2.20;99.90
8067;DHT22;4076;48.076;9.118;2022-12-07T06:59:21;2.20;99.90
8067;DHT22;4076;48.076;9.118;2022-12-07T07:01:46;2.10;99.90
8067;DHT22;4076;48.076;9.118;2022-12-07T07:04:12;2.10;99.90
8067;DHT22;4076;48.076;9.118;2022-12-07T07:06:38;2.00;99.90
8067;DHT22;4076;48.076;9.118;2022-12-07T07:09:03;2.00;99.90
8067;DHT22;4076;48.076;9.118;2022-12-07T07:11:29;2.00;99.90
8067;DHT22;4076;48.076;9.118;2022-12-07T07:13:55;2.00;99.90
8067;DHT22;4076;48.076;9.118;2022-12-07T07:16:23;2.00;99.90
8067;DHT22;4076;48.076;9.118;2022-12-07T07:18:49;1.90;99.90
8067;DHT22;4076;48.076;9.118;2022-12-07T07:21:14;1.90;99.90
8067;DHT22;4076;48.076;9.118;2022-12-07T07:23:40;1.90;99.90
8067;DHT22;4076;48.076;9.118;2022-12-07T07:26:06;1.90;99.90
8067;DHT22;4076;48.076;9.118;2022-12-07T07:28:31;1.90;99.90
8067;DHT22;4076;48.076;9.118;2022-12-07T07:30:57;1.90;99.90
8067;DHT22;4076;48.076;9.118;2022-12-07T07:33:22;1.90;99.90
8067;DHT22;4076;48.076;9.118;2022-12-07T07:35:48;1.90;99.90
8067;DHT22;4076;48.076;9.118;2022-12-07T07:38:13;1.90;99.90
8067;DHT22;4076;48.076;9.118;2022-12-07T07:40:39;1.90;99.90
8067;DHT22;4076;48.076;9.118;2022-12-07T07:43:05;1.90;99.90
8067;DHT22;4076;48.076;9.118;2022-12-07T07:45:30;1.90;99.90
8067;DHT22;4076;48.076;9.118;2022-12-07T07:47:56;1.90;99.90
8067;DHT22;4076;48.076;9.118;2022-12-07T07:50:22;1.90;99.90
8067;DHT22;4076;48.076;9.118;2022-12-07T07:52:47;1.90;99.90
8067;DHT22;4076;48.076;9.118;2022-12-07T07:55:13;1.90;99.90
8067;DHT22;4076;48.076;9.118;2022-12-07T07:57:40;2.10;99.90
8067;DHT22;4076;48.076;9.118;2022-12-07T08:00:08;2.20;99.90
8067;DHT22;4076;48.076;9.118;2022-12-07T08:02:34;2.20;99.90
8067;DHT22;4076;48.076;9.118;2022-12-07T08:05:00;2.30;99.90
8067;DHT22;4076;48.076;9.118;2022-12-07T08:07:27;2.30;99.90
8067;DHT22;4076;48.076;9.118;2022-12-07T08:09:53;2.20;99.90
8067;DHT22;4076;48.076;9.118;2022-12-07T08:12:19;2.30;99.90
8067;DHT22;4076;48.076;9.118;2022-12-07T08:14:44;2.20;99.90
8067;DHT22;4076;48.076;9.118;2022-12-07T08:17:10;2.20;99.90
8067;DHT22;4076;48.076;9.118;2022-12-07T08:19:35;2.20;99.90
8067;DHT22;4076;48.076;9.118;2022-12-07T08:22:02;2.20;99.90
8067;DHT22;4076;48.076;9.118;2022-12-07T08:24:27;2.10;99.90
8067;DHT22;4076;48.076;9.118;2022-12-07T08:26:53;2.10;99.90
8067;DHT22;4076;48.076;9.118;2022-12-07T08:29:19;2.10;99.90
8067;DHT22;4076;48.076;9.118;2022-12-07T08:31:44;2.10;99.90
8067;DHT22;4076;48.076;9.118;2022-12-07T08:34:11;2.20;99.90
8067;DHT22;4076;48.076;9.118;2022-12-07T08:36:37;2.20;99.90
8067;DHT22;4076;48.076;9.118;2022-12-07T08:39:03;2.20;99.90
8067;DHT22;4076;48.076;9.118;2022-12-07T08:41:28;2.30;99.90
8067;DHT22;4076;48.076;9.118;2022-12-07T08:43:54;2.30;99.90
8067;DHT22;4076;48.076;9.118;2022-12-07T08:46:34;2.30;99.90
8067;DHT22;4076;48.076;9.118;2022-12-07T08:51:35;2.30;99.90
8067;DHT22;4076;48.076;9.118;2022-12-07T08:54:04;2.30;99.90
8067;DHT22;4076;48.076;9.118;2022-12-07T08:56:31;2.30;99.90
8067;DHT22;4076;48.076;9.118;2022-12-07T08:58:57;2.30;99.90
8067;DHT22;4076;48.076;9.118;2022-12-07T09:01:23;2.40;99.90
8067;DHT22;4076;48.076;9.118;2022-12-07T09:03:49;2.50;99.90
8067;DHT22;4076;48.076;9.118;2022-12-07T09:06:14;2.60;99.90
8067;DHT22;4076;48.076;9.118;2022-12-07T09:08:43;2.70;99.90
8067;DHT22;4076;48.076;9.118;2022-12-07T09:11:08;2.80;99.90
8067;DHT22;4076;48.076;9.118;2022-12-07T09:13:34;2.90;99.90
8067;DHT22;4076;48.076;9.118;2022-12-07T09:16:00;2.90;99.90
8067;DHT22;4076;48.076;9.118;2022-12-07T09:18:26;2.80;99.90
8067;DHT22;4076;48.076;9.118;2022-12-07T09:20:51;2.80;99.90
8067;DHT22;4076;48.076;9.118;2022-12-07T09:23:17;2.90;99.90
8067;DHT22;4076;48.076;9.118;2022-12-07T09:25:43;3.00;99.90
8067;DHT22;4076;48.076;9.118;2022-12-07T09:28:09;3.00;99.90
8067;DHT22;4076;48.076;9.118;2022-12-07T09:30:34;2.90;99.90
8067;DHT22;4076;48.076;9.118;2022-12-07T09:33:00;3.00;99.90
8067;DHT22;4076;48.076;9.118;2022-12-07T09:35:26;3.20;99.90
8067;DHT22;4076;48.076;9.118;2022-12-07T09:37:51;3.40;99.90
8067;DHT22;4076;48.076;9.118;2022-12-07T09:40:20;3.70;99.90
8067;DHT22;4076;48.076;9.118;2022-12-07T09:42:54;3.90;99.90
8067;DHT22;4076;48.076;9.118;2022-12-07T09:45:47;3.90;99.90
8067;DHT22;4076;48.076;9.118;2022-12-07T09:48:29;4.20;99.90
8067;DHT22;4076;48.076;9.118;2022-12-07T09:50:57;4.40;99.90
8067;DHT22;4076;48.076;9.118;2022-12-07T09:53:37;4.30;99.90
8067;DHT22;4076;48.076;9.118;2022-12-07T09:56:03;4.30;99.90
8067;DHT22;4076;48.076;9.118;2022-12-07T09:58:32;4.30;99.90
8067;DHT22;4076;48.076;9.118;2022-12-07T10:01:13;4.20;99.90
8067;DHT22;4076;48.076;9.118;2022-12-07T10:03:42;4.20;99.90
8067;DHT22;4076;48.076;9.118;2022-12-07T10:06:12;4.40;99.90
8067;DHT22;4076;48.076;9.118;2022-12-07T10:08:38;4.50;99.90
8067;DHT22;4076;48.076;9.118;2022-12-07T10:11:03;4.60;99.90
8067;DHT22;4076;48.076;9.118;2022-12-07T10:13:44;4.50;99.90
8067;DHT22;4076;48.076;9.118;2022-12-07T10:16:40;4.50;99.90
8067;DHT22;4076;48.076;9.118;2022-12-07T10:19:19;4.50;99.90
8067;DHT22;4076;48.076;9.118;2022-12-07T10:22:04;4.60;99.90
8067;DHT22;4076;48.076;9.118;2022-12-07T10:24:30;4.70;99.90
8067;DHT22;4076;48.076;9.118;2022-12-07T10:26:56;4.90;99.90
8067;DHT22;4076;48.076;9.118;2022-12-07T10:29:31;5.10;99.90
8067;DHT22;4076;48.076;9.118;2022-12-07T10:34:35;5.40;99.90
8067;DHT22;4076;48.076;9.118;2022-12-07T10:39:48;5.60;99.90
8067;DHT22;4076;48.076;9.118;2022-12-07T10:42:29;5.60;99.90
8067;DHT22;4076;48.076;9.118;2022-12-07T10:45:21;5.70;99.90
8067;DHT22;4076;48.076;9.118;2022-12-07T10:51:02;5.90;99.90
8067;DHT22;4076;48.076;9.118;2022-12-07T11:09:54;6.40;99.90
8067;DHT22;4076;48.076;9.118;2022-12-07T11:15:26;6.60;99.90
8067;DHT22;4076;48.076;9.118;2022-12-07T11:23:17;6.70;99.90
8067;DHT22;4076;48.076;9.118;2022-12-07T11:33:43;6.60;99.90
8067;DHT22;4076;48.076;9.118;2022-12-07T11:39:04;6.60;99.90
8067;DHT22;4076;48.076;9.118;2022-12-07T11:41:36;6.50;99.90
8067;DHT22;4076;48.076;9.118;2022-12-07T11:44:17;6.50;99.90
8067;DHT22;4076;48.076;9.118;2022-12-07T11:46:54;6.50;99.90
8067;DHT22;4076;48.076;9.118;2022-12-07T11:52:02;6.60;99.90
8067;DHT22;4076;48.076;9.118;2022-12-07T11:54:34;6.60;99.90
8067;DHT22;4076;48.076;9.118;2022-12-07T11:57:07;6.70;99.90
8067;DHT22;4076;48.076;9.118;2022-12-07T11:59:40;6.80;99.90
8067;DHT22;4076;48.076;9.118;2022-12-07T12:02:23;6.80;99.90
8067;DHT22;4076;48.076;9.118;2022-12-07T12:05:16;6.80;99.90
8067;DHT22;4076;48.076;9.118;2022-12-07T12:07:45;6.90;99.90
8067;DHT22;4076;48.076;9.118;2022-12-07T12:14:09;6.80;99.90
8067;DHT22;4076;48.076;9.118;2022-12-07T12:19:32;6.90;99.90
8067;DHT22;4076;48.076;9.118;2022-12-07T12:22:14;6.90;99.90
8067;DHT22;4076;48.076;9.118;2022-12-07T12:24:41;6.90;99.90
8067;DHT22;4076;48.076;9.118;2022-12-07T12:27:15;7.00;99.90
8067;DHT22;4076;48.076;9.118;2022-12-07T12:29:43;7.00;99.90
8067;DHT22;4076;48.076;9.118;2022-12-07T12:32:22;7.10;99.90
8067;DHT22;4076;48.076;9.118;2022-12-07T12:35:02;7.10;99.90
8067;DHT22;4076;48.076;9.118;2022-12-07T12:42:49;6.80;94.90
8067;DHT22;4076;48.076;9.118;2022-12-07T12:45:27;6.80;95.60
8067;DHT22;4076;48.076;9.118;2022-12-07T12:50:35;6.80;95.80
8067;DHT22;4076;48.076;9.118;2022-12-07T12:53:25;6.80;94.60
8067;DHT22;4076;48.076;9.118;2022-12-07T12:56:17;6.70;94.50
8067;DHT22;4076;48.076;9.118;2022-12-07T12:58:47;6.80;94.80
8067;DHT22;4076;48.076;9.118;2022-12-07T13:04:01;6.90;93.40
8067;DHT22;4076;48.076;9.118;2022-12-07T13:08:55;6.80;91.40
8067;DHT22;4076;48.076;9.118;2022-12-07T13:11:35;6.70;87.50
8067;DHT22;4076;48.076;9.118;2022-12-07T13:17:11;6.70;90.70
8067;DHT22;4076;48.076;9.118;2022-12-07T13:28:07;6.70;85.80
8067;DHT22;4076;48.076;9.118;2022-12-07T13:30:42;6.60;87.40
8067;DHT22;4076;48.076;9.118;2022-12-07T13:33:10;6.50;84.00
8067;DHT22;4076;48.076;9.118;2022-12-07T13:35:37;6.30;82.90
8067;DHT22;4076;48.076;9.118;2022-12-07T13:41:13;6.00;85.30
8067;DHT22;4076;48.076;9.118;2022-12-07T13:44:34;5.80;85.90
8067;DHT22;4076;48.076;9.118;2022-12-07T13:49:23;5.50;85.20
8067;DHT22;4076;48.076;9.118;2022-12-07T13:51:50;5.40;86.40
8067;DHT22;4076;48.076;9.118;2022-12-07T13:54:17;5.30;87.80
8067;DHT22;4076;48.076;9.118;2022-12-07T13:56:43;5.20;88.70
8067;DHT22;4076;48.076;9.118;2022-12-07T13:59:23;5.10;89.70
8067;DHT22;4076;48.076;9.118;2022-12-07T14:01:51;5.10;90.60
8067;DHT22;4076;48.076;9.118;2022-12-07T14:06:58;4.90;92.00
8067;DHT22;4076;48.076;9.118;2022-12-07T14:09:26;4.80;96.60
8067;DHT22;4076;48.076;9.118;2022-12-07T14:11:55;4.70;95.20
8067;DHT22;4076;48.076;9.118;2022-12-07T14:14:24;4.60;98.40
8067;DHT22;4076;48.076;9.118;2022-12-07T14:17:19;4.40;99.90
8067;DHT22;4076;48.076;9.118;2022-12-07T14:20:01;4.30;99.90
8067;DHT22;4076;48.076;9.118;2022-12-07T14:22:28;4.20;99.90
8067;DHT22;4076;48.076;9.118;2022-12-07T14:27:34;4.00;99.90
8067;DHT22;4076;48.076;9.118;2022-12-07T14:30:03;3.90;99.90
8067;DHT22;4076;48.076;9.118;2022-12-07T14:32:30;3.80;99.90
8067;DHT22;4076;48.076;9.118;2022-12-07T14:35:03;3.70;99.90
8067;DHT22;4076;48.076;9.118;2022-12-07T14:37:33;3.70;99.90
8067;DHT22;4076;48.076;9.118;2022-12-07T14:39:59;3.60;99.90
8067;DHT22;4076;48.076;9.118;2022-12-07T14:42:28;3.50;99.90
8067;DHT22;4076;48.076;9.118;2022-12-07T14:44:55;3.50;99.90
8067;DHT22;4076;48.076;9.118;2022-12-07T14:47:21;3.40;99.90
8067;DHT22;4076;48.076;9.118;2022-12-07T14:49:47;3.30;99.90
8067;DHT22;4076;48.076;9.118;2022-12-07T14:52:27;3.20;99.90
8067;DHT22;4076;48.076;9.118;2022-12-07T14:54:53;3.20;99.90
8067;DHT22;4076;48.076;9.118;2022-12-07T14:57:19;3.10;99.90
8067;DHT22;4076;48.076;9.118;2022-12-07T14:59:44;3.10;99.90
8067;DHT22;4076;48.076;9.118;2022-12-07T15:02:14;3.00;99.90
8067;DHT22;4076;48.076;9.118;2022-12-07T15:04:40;3.00;99.90
8067;DHT22;4076;48.076;9.118;2022-12-07T15:07:14;2.90;99.90
8067;DHT22;4076;48.076;9.118;2022-12-07T15:09:41;2.90;99.90
8067;DHT22;4076;48.076;9.118;2022-12-07T15:12:06;2.80;99.90
8067;DHT22;4076;48.076;9.118;2022-12-07T15:14:32;2.80;99.90
8067;DHT22;4076;48.076;9.118;2022-12-07T15:16:58;2.70;99.90
8067;DHT22;4076;48.076;9.118;2022-12-07T15:19:24;2.70;99.90
8067;DHT22;4076;48.076;9.118;2022-12-07T15:21:51;2.60;99.90
8067;DHT22;4076;48.076;9.118;2022-12-07T15:24:18;2.50;99.90
8067;DHT22;4076;48.076;9.118;2022-12-07T15:26:44;2.40;99.90
8067;DHT22;4076;48.076;9.118;2022-12-07T15:29:10;2.30;99.90
8067;DHT22;4076;48.076;9.118;2022-12-07T15:31:36;2.20;99.90
8067;DHT22;4076;48.076;9.118;2022-12-07T15:34:02;2.10;99.90
8067;DHT22;4076;48.076;9.118;2022-12-07T15:36:29;2.00;99.90
8067;DHT22;4076;48.076;9.118;2022-12-07T15:38:56;2.00;99.90
8067;DHT22;4076;48.076;9.118;2022-12-07T15:41:22;1.90;99.90
8067;DHT22;4076;48.076;9.118;2022-12-07T15:43:48;1.80;99.90
8067;DHT22;4076;48.076;9.118;2022-12-07T15:46:34;1.70;99.90
8067;DHT22;4076;48.076;9.118;2022-12-07T15:49:00;1.80;99.90
8067;DHT22;4076;48.076;9.118;2022-12-07T15:51:26;1.70;99.90
8067;DHT22;4076;48.076;9.118;2022-12-07T15:53:52;1.70;99.90
8067;DHT22;4076;48.076;9.118;2022-12-07T15:56:18;1.60;99.90
8067;DHT22;4076;48.076;9.118;2022-12-07T15:58:43;1.60;99.90
8067;DHT22;4076;48.076;9.118;2022-12-07T16:01:17;1.60;99.90
8067;DHT22;4076;48.076;9.118;2022-12-07T16:03:44;1.50;99.90
8067;DHT22;4076;48.076;9.118;2022-12-07T16:06:11;1.50;99.90
8067;DHT22;4076;48.076;9.118;2022-12-07T16:08:37;1.50;99.90
8067;DHT22;4076;48.076;9.118;2022-12-07T16:11:07;1.40;99.90
8067;DHT22;4076;48.076;9.118;2022-12-07T16:13:33;1.30;99.90
8067;DHT22;4076;48.076;9.118;2022-12-07T16:16:03;1.30;99.90
8067;DHT22;4076;48.076;9.118;2022-12-07T16:18:29;1.30;99.90
8067;DHT22;4076;48.076;9.118;2022-12-07T16:20:54;1.20;99.90
8067;DHT22;4076;48.076;9.118;2022-12-07T16:23:20;1.20;99.90
8067;DHT22;4076;48.076;9.118;2022-12-07T16:25:46;1.20;99.90
8067;DHT22;4076;48.076;9.118;2022-12-07T16:28:11;1.10;99.90
8067;DHT22;4076;48.076;9.118;2022-12-07T16:30:37;1.10;99.90
8067;DHT22;4076;48.076;9.118;2022-12-07T16:33:02;1.30;99.90
8067;DHT22;4076;48.076;9.118;2022-12-07T16:35:28;1.20;99.90
8067;DHT22;4076;48.076;9.118;2022-12-07T16:37:53;1.10;99.90
8067;DHT22;4076;48.076;9.118;2022-12-07T16:40:19;1.10;99.90
8067;DHT22;4076;48.076;9.118;2022-12-07T16:42:45;1.20;99.90
8067;DHT22;4076;48.076;9.118;2022-12-07T16:45:10;1.10;99.90
8067;DHT22;4076;48.076;9.118;2022-12-07T16:47:39;1.10;99.90
8067;DHT22;4076;48.076;9.118;2022-12-07T16:50:06;1.10;99.90
8067;DHT22;4076;48.076;9.118;2022-12-07T16:52:33;1.10;99.90
8067;DHT22;4076;48.076;9.118;2022-12-07T16:54:58;1.10;99.90
8067;DHT22;4076;48.076;9.118;2022-12-07T16:57:24;1.10;99.90
8067;DHT22;4076;48.076;9.118;2022-12-07T16:59:51;1.10;99.90
8067;DHT22;4076;48.076;9.118;2022-12-07T17:02:17;1.10;99.90
8067;DHT22;4076;48.076;9.118;2022-12-07T17:04:43;1.00;99.90
8067;DHT22;4076;48.076;9.118;2022-12-07T17:07:09;1.00;99.90
8067;DHT22;4076;48.076;9.118;2022-12-07T17:09:36;0.90;99.90
8067;DHT22;4076;48.076;9.118;2022-12-07T17:12:01;0.90;99.90
8067;DHT22;4076;48.076;9.118;2022-12-07T17:14:27;0.90;99.90
8067;DHT22;4076;48.076;9.118;2022-12-07T17:17:11;1.00;99.90
8067;DHT22;4076;48.076;9.118;2022-12-07T17:19:37;1.00;99.90
8067;DHT22;4076;48.076;9.118;2022-12-07T17:22:03;1.00;99.90
8067;DHT22;4076;48.076;9.118;2022-12-07T17:24:29;1.00;99.90
8067;DHT22;4076;48.076;9.118;2022-12-07T17:26:55;1.00;99.90
8067;DHT22;4076;48.076;9.118;2022-12-07T17:29:20;1.00;99.90
8067;DHT22;4076;48.076;9.118;2022-12-07T17:31:47;1.00;99.90
8067;DHT22;4076;48.076;9.118;2022-12-07T17:34:14;1.00;99.90
8067;DHT22;4076;48.076;9.118;2022-12-07T17:36:41;0.90;99.90
8067;DHT22;4076;48.076;9.118;2022-12-07T17:39:10;0.90;99.90
8067;DHT22;4076;48.076;9.118;2022-12-07T17:41:37;0.80;99.90
8067;DHT22;4076;48.076;9.118;2022-12-07T17:44:22;0.80;99.90
8067;DHT22;4076;48.076;9.118;2022-12-07T17:46:49;0.90;99.90
8067;DHT22;4076;48.076;9.118;2022-12-07T17:49:15;0.90;99.90
8067;DHT22;4076;48.076;9.118;2022-12-07T17:51:42;0.90;99.90
8067;DHT22;4076;48.076;9.118;2022-12-07T17:54:46;0.90;99.90
8067;DHT22;4076;48.076;9.118;2022-12-07T17:57:12;0.90;99.90
8067;DHT22;4076;48.076;9.118;2022-12-07T17:59:37;1.00;99.90
8067;DHT22;4076;48.076;9.118;2022-12-07T18:02:03;1.00;99.90
8067;DHT22;4076;48.076;9.118;2022-12-07T18:04:29;1.10;99.90
8067;DHT22;4076;48.076;9.118;2022-12-07T18:06:55;1.10;99.90
8067;DHT22;4076;48.076;9.118;2022-12-07T18:09:21;1.10;99.90
8067;DHT22;4076;48.076;9.118;2022-12-07T18:11:47;1.10;99.90
8067;DHT22;4076;48.076;9.118;2022-12-07T18:14:13;1.00;99.90
8067;DHT22;4076;48.076;9.118;2022-12-07T18:16:39;1.00;99.90
8067;DHT22;4076;48.076;9.118;2022-12-07T18:19:05;1.00;99.90
8067;DHT22;4076;48.076;9.118;2022-12-07T18:21:33;0.90;99.90
8067;DHT22;4076;48.076;9.118;2022-12-07T18:24:00;0.90;99.90
8067;DHT22;4076;48.076;9.118;2022-12-07T18:26:28;0.90;99.90